createdAt,value
2018-12-27T00:00:50.387Z,7.72
2018-12-27T00:03:31.389Z,8.55
2018-12-27T00:06:12.292Z,6.62
2018-12-27T00:08:52.928Z,9.60
2018-12-27T00:11:33.883Z,6.95
2018-12-27T00:14:14.605Z,9.43
2018-12-27T00:16:55.578Z,16.37
2018-12-27T00:19:36.243Z,12.47
2018-12-27T00:22:16.853Z,10.30
2018-12-27T00:24:57.955Z,20.72
2018-12-27T00:27:38.865Z,17.00
2018-12-27T00:30:19.416Z,20.32
2018-12-27T00:33:03.317Z,16.75
2018-12-27T00:35:42.550Z,17.52
2018-12-27T00:38:23.483Z,14.40
2018-12-27T00:41:04.008Z,14.70
2018-12-27T00:43:44.824Z,15.75
2018-12-27T00:46:25.816Z,18.10
2018-12-27T00:49:06.268Z,13.25
2018-12-27T00:51:47.008Z,16.90
2018-12-27T00:54:27.690Z,14.90
2018-12-27T00:57:08.555Z,16.57
2018-12-27T00:59:49.333Z,12.63
2018-12-27T01:02:29.915Z,11.78
2018-12-27T01:05:10.582Z,9.25
2018-12-27T01:07:51.399Z,13.35
2018-12-27T01:10:31.786Z,11.75
2018-12-27T01:13:12.765Z,14.83
2018-12-27T01:15:53.512Z,9.28
2018-12-27T01:18:34.224Z,12.15
2018-12-27T01:21:15.139Z,11.95
2018-12-27T01:23:55.965Z,10.40
2018-12-27T01:26:36.711Z,14.33
2018-12-27T01:29:17.640Z,10.68
2018-12-27T01:31:58.512Z,8.78
2018-12-27T01:34:38.848Z,14.03
2018-12-27T01:37:19.719Z,8.50
2018-12-27T01:40:00.315Z,9.83
2018-12-27T01:42:41.092Z,10.68
2018-12-27T01:45:21.563Z,7.70
2018-12-27T01:48:02.081Z,10.65
2018-12-27T01:50:43.027Z,9.50
2018-12-27T01:53:23.599Z,5.92
2018-12-27T01:56:04.208Z,12.73
2018-12-27T01:58:44.544Z,10.48
2018-12-27T02:01:25.531Z,7.50
2018-12-27T02:04:06.292Z,8.53
2018-12-27T02:06:47.097Z,8.75
2018-12-27T02:09:27.856Z,7.47
2018-12-27T02:12:08.378Z,8.10
2018-12-27T02:14:49.027Z,6.80
2018-12-27T02:17:29.643Z,9.60
2018-12-27T02:20:10.308Z,7.30
2018-12-27T02:22:51.099Z,6.33
2018-12-27T02:25:31.815Z,8.63
2018-12-27T02:28:12.788Z,6.70
2018-12-27T02:30:53.568Z,6.90
2018-12-27T02:33:35.598Z,6.37
2018-12-27T02:36:16.140Z,7.95
2018-12-27T02:38:56.811Z,10.82
2018-12-27T02:41:37.549Z,7.55
2018-12-27T02:44:18.468Z,9.78
2018-12-27T02:46:59.463Z,8.53
2018-12-27T02:49:39.784Z,9.35
2018-12-27T02:52:20.139Z,5.67
2018-12-27T02:55:00.807Z,6.10
2018-12-27T02:57:41.543Z,11.57
2018-12-27T03:00:22.499Z,8.53
2018-12-27T03:03:03.220Z,6.33
2018-12-27T03:05:44.240Z,7.33
2018-12-27T03:08:24.602Z,13.18
2018-12-27T03:11:04.987Z,6.65
2018-12-27T03:13:45.339Z,7.83
2018-12-27T03:16:25.806Z,7.83
2018-12-27T03:19:06.249Z,9.23
2018-12-27T03:21:47.160Z,7.55
2018-12-27T03:24:27.957Z,7.53
2018-12-27T03:27:08.508Z,12.30
2018-12-27T03:29:49.164Z,7.00
2018-12-27T03:32:29.924Z,9.70
2018-12-27T03:35:10.899Z,7.08
2018-12-27T03:37:51.871Z,7.37
2018-12-27T03:40:32.744Z,9.15
2018-12-27T03:43:13.575Z,10.32
2018-12-27T03:45:54.024Z,5.62
2018-12-27T03:48:34.566Z,9.65
2018-12-27T03:51:15.154Z,6.25
2018-12-27T03:53:56.079Z,10.58
2018-12-27T03:56:36.595Z,7.00
2018-12-27T03:59:17.263Z,8.85
2018-12-27T04:01:57.738Z,7.60
2018-12-27T04:04:38.383Z,10.93
2018-12-27T04:07:18.940Z,7.53
2018-12-27T04:09:59.905Z,8.13
2018-12-27T04:12:40.750Z,9.68
2018-12-27T04:15:21.408Z,8.65
2018-12-27T04:18:02.213Z,10.72
2018-12-27T04:20:42.854Z,19.62
2018-12-27T04:23:23.771Z,8.98
2018-12-27T04:26:04.420Z,6.60
2018-12-27T04:28:44.887Z,7.97
2018-12-27T04:31:25.460Z,7.60
2018-12-27T04:34:09.696Z,6.30
2018-12-27T04:36:48.756Z,7.42
2018-12-27T04:39:29.436Z,8.03
2018-12-27T04:42:09.727Z,7.65
2018-12-27T04:44:50.552Z,6.72
2018-12-27T04:47:31.279Z,6.70
2018-12-27T04:50:12.099Z,7.60
2018-12-27T04:52:52.994Z,8.83
2018-12-27T04:55:33.569Z,6.15
2018-12-27T04:58:14.104Z,6.60
2018-12-27T05:00:54.879Z,12.50
2018-12-27T05:03:35.542Z,8.10
2018-12-27T05:06:16.192Z,6.55
2018-12-27T05:08:57.080Z,5.60
2018-12-27T05:11:37.956Z,11.55
2018-12-27T05:14:18.707Z,8.58
2018-12-27T05:16:59.797Z,6.62
2018-12-27T05:19:40.872Z,5.33
2018-12-27T05:22:21.800Z,6.50
2018-12-27T05:25:02.833Z,16.17
2018-12-27T05:27:43.988Z,9.45
2018-12-27T05:30:24.524Z,6.80
2018-12-27T05:33:05.238Z,7.10
2018-12-27T05:35:45.716Z,6.22
2018-12-27T05:38:26.467Z,8.48
2018-12-27T05:41:07.100Z,4.83
2018-12-27T05:43:48.372Z,7.80
2018-12-27T05:46:29.027Z,5.03
2018-12-27T05:49:09.909Z,5.85
2018-12-27T05:51:50.818Z,8.25
2018-12-27T05:54:31.419Z,5.35
2018-12-27T05:57:12.407Z,5.17
2018-12-27T05:59:53.432Z,8.30
2018-12-27T06:02:34.131Z,4.97
2018-12-27T06:05:15.057Z,5.72
2018-12-27T06:07:55.773Z,4.58
2018-12-27T06:10:36.355Z,5.10
2018-12-27T06:13:16.830Z,5.55
2018-12-27T06:15:57.348Z,6.70
2018-12-27T06:18:38.160Z,6.03
2018-12-27T06:21:18.956Z,7.28
2018-12-27T06:23:59.525Z,8.10
2018-12-27T06:26:40.325Z,6.47
2018-12-27T06:29:19.232Z,9.45
2018-12-27T06:32:07.103Z,10.25
2018-12-27T06:34:54.987Z,4.83
2018-12-27T06:37:42.784Z,6.00
2018-12-27T06:40:30.674Z,4.83
2018-12-27T06:43:18.544Z,4.87
2018-12-27T06:46:06.435Z,5.50
2018-12-27T06:48:54.312Z,9.50
2018-12-27T06:51:42.197Z,7.80
2018-12-27T06:54:30.078Z,13.95
2018-12-27T06:57:17.967Z,12.95
2018-12-27T07:00:06.303Z,8.50
2018-12-27T07:02:54.195Z,8.35
2018-12-27T07:05:42.101Z,7.90
2018-12-27T07:08:29.956Z,8.60
2018-12-27T07:11:17.822Z,6.95
2018-12-27T07:14:05.634Z,8.23
2018-12-27T07:16:53.503Z,8.45
2018-12-27T07:19:41.392Z,7.20
2018-12-27T07:22:29.278Z,7.97
2018-12-27T07:25:09.995Z,8.65
2018-12-27T07:27:50.564Z,13.70
2018-12-27T07:30:31.072Z,6.33
2018-12-27T07:33:11.665Z,7.35
2018-12-27T07:35:52.675Z,9.98
2018-12-27T07:38:33.784Z,5.42
2018-12-27T07:41:14.352Z,11.05
2018-12-27T07:43:55.196Z,7.47
2018-12-27T07:46:36.172Z,11.73
2018-12-27T07:49:17.090Z,7.00
2018-12-27T07:51:58.145Z,8.83
2018-12-27T07:54:38.897Z,5.42
2018-12-27T07:57:19.516Z,6.92
2018-12-27T07:59:59.928Z,5.87
2018-12-27T08:02:40.991Z,7.62
2018-12-27T08:05:21.349Z,5.08
2018-12-27T08:08:01.613Z,7.45
2018-12-27T08:10:42.172Z,6.97
2018-12-27T08:13:22.777Z,8.65
2018-12-27T08:16:03.390Z,7.97
2018-12-27T08:18:44.127Z,7.08
2018-12-27T08:21:24.964Z,5.10
2018-12-27T08:24:06.151Z,5.87
2018-12-27T08:26:46.742Z,8.55
2018-12-27T08:29:27.314Z,8.88
2018-12-27T08:32:08.248Z,6.20
2018-12-27T08:34:49.191Z,8.15
2018-12-27T08:37:30.121Z,5.90
2018-12-27T08:40:10.775Z,7.03
2018-12-27T08:42:51.532Z,5.45
2018-12-27T08:45:32.271Z,5.03
2018-12-27T08:51:02.328Z,5.83
2018-12-27T08:56:25.550Z,4.67
2018-12-27T08:59:06.043Z,5.55
2018-12-27T09:01:46.801Z,4.70
2018-12-27T09:04:27.467Z,5.30
2018-12-27T09:07:07.833Z,4.53
2018-12-27T09:09:48.525Z,4.83
2018-12-27T09:12:28.963Z,7.15
2018-12-27T09:15:09.615Z,5.80
2018-12-27T09:17:50.501Z,18.40
2018-12-27T09:20:31.543Z,17.25
2018-12-27T09:23:12.241Z,17.17
2018-12-27T09:25:52.868Z,19.50
2018-12-27T09:28:33.660Z,14.03
2018-12-27T09:31:14.494Z,18.85
2018-12-27T09:33:55.379Z,19.95
2018-12-27T09:36:36.149Z,19.15
2018-12-27T09:39:16.890Z,17.52
2018-12-27T09:41:57.379Z,14.70
2018-12-27T09:44:38.231Z,18.40
2018-12-27T09:47:19.200Z,18.57
2018-12-27T09:50:00.014Z,15.75
2018-12-27T09:52:40.645Z,12.70
2018-12-27T09:55:21.136Z,18.25
2018-12-27T09:58:01.448Z,15.30
2018-12-27T10:00:41.985Z,16.55
2018-12-27T10:03:22.449Z,16.70
2018-12-27T10:06:04.585Z,16.82
2018-12-27T10:08:45.887Z,12.40
2018-12-27T10:11:26.556Z,16.62
2018-12-27T10:14:07.099Z,12.13
2018-12-27T10:16:47.477Z,11.60
2018-12-27T10:19:28.432Z,18.30
2018-12-27T10:22:09.214Z,18.60
2018-12-27T10:24:49.810Z,16.85
2018-12-27T10:27:30.233Z,17.62
2018-12-27T10:30:10.975Z,15.13
2018-12-27T10:32:51.759Z,17.23
2018-12-27T10:35:32.607Z,19.10
2018-12-27T10:38:13.480Z,17.92
2018-12-27T10:40:54.403Z,18.05
2018-12-27T10:43:35.107Z,18.02
2018-12-27T10:46:15.566Z,15.05
2018-12-27T10:48:56.327Z,15.90
2018-12-27T10:51:36.855Z,16.10
2018-12-27T10:54:17.400Z,18.75
2018-12-27T10:56:58.111Z,16.42
2018-12-27T10:59:38.657Z,19.02
2018-12-27T11:02:19.373Z,18.23
2018-12-27T11:04:59.893Z,20.90
2018-12-27T11:07:40.664Z,14.07
2018-12-27T11:10:21.560Z,18.27
2018-12-27T11:13:02.207Z,16.87
2018-12-27T11:15:43.073Z,17.05
2018-12-27T11:18:23.711Z,14.05
2018-12-27T11:21:04.145Z,14.18
2018-12-27T11:23:44.810Z,9.90
2018-12-27T11:26:25.316Z,8.25
2018-12-27T11:29:05.651Z,14.23
2018-12-27T11:31:45.981Z,8.68
2018-12-27T11:34:26.457Z,8.80
2018-12-27T11:37:07.053Z,7.47
2018-12-27T11:39:47.957Z,9.10
2018-12-27T11:42:28.571Z,6.10
2018-12-27T11:45:09.093Z,6.12
2018-12-27T11:47:49.799Z,10.93
2018-12-27T11:50:30.487Z,8.33
2018-12-27T11:53:10.795Z,6.05
2018-12-27T11:55:51.514Z,6.75
2018-12-27T11:58:31.910Z,5.97
2018-12-27T12:01:12.589Z,5.97
2018-12-27T12:03:53.356Z,4.22
2018-12-27T12:06:33.764Z,8.78
2018-12-27T12:09:14.632Z,5.05
2018-12-27T12:11:55.681Z,4.55
2018-12-27T12:14:36.620Z,5.00
2018-12-27T12:17:17.397Z,5.22
2018-12-27T12:19:58.389Z,5.42
2018-12-27T12:22:39.194Z,6.58
2018-12-27T12:25:20.093Z,4.95
2018-12-27T12:28:00.707Z,6.83
2018-12-27T12:30:41.579Z,5.28
2018-12-27T12:33:22.226Z,3.17
2018-12-27T12:36:10.250Z,3.00
2018-12-27T12:38:45.868Z,5.72
2018-12-27T12:41:26.459Z,4.50
2018-12-27T12:44:07.193Z,3.65
2018-12-27T12:46:48.167Z,3.75
2018-12-27T12:49:28.988Z,2.50
2018-12-27T12:52:09.533Z,2.90
2018-12-27T12:54:50.215Z,5.65
2018-12-27T12:57:31.207Z,4.15
2018-12-27T13:00:12.003Z,3.60
2018-12-27T13:02:52.286Z,2.40
2018-12-27T13:05:32.956Z,2.77
2018-12-27T13:08:13.807Z,2.50
2018-12-27T13:10:54.682Z,2.60
2018-12-27T13:13:35.324Z,1.98
2018-12-27T13:16:15.990Z,1.95
2018-12-27T13:18:57.031Z,2.17
2018-12-27T13:21:37.449Z,4.03
2018-12-27T13:24:17.934Z,3.02
2018-12-27T13:26:58.849Z,3.40
2018-12-27T13:29:40.012Z,3.50
2018-12-27T13:32:21.255Z,1.90
2018-12-27T13:35:01.805Z,2.85
2018-12-27T13:37:42.908Z,2.33
2018-12-27T13:40:23.891Z,3.37
2018-12-27T13:43:04.956Z,2.08
2018-12-27T13:45:45.903Z,2.83
2018-12-27T13:48:26.733Z,2.05
2018-12-27T13:51:07.863Z,2.10
2018-12-27T13:53:48.921Z,1.98
2018-12-27T13:56:29.775Z,2.00
2018-12-27T13:59:10.461Z,2.90
2018-12-27T14:01:51.115Z,2.10
2018-12-27T14:04:31.821Z,3.20
2018-12-27T14:07:12.499Z,2.83
2018-12-27T14:09:53.421Z,2.58
2018-12-27T14:12:34.169Z,2.80
2018-12-27T14:15:14.970Z,3.70
2018-12-27T14:17:55.860Z,2.75
2018-12-27T14:20:36.659Z,2.02
2018-12-27T14:23:17.067Z,2.05
2018-12-27T14:25:57.847Z,2.37
2018-12-27T14:28:38.568Z,2.25
2018-12-27T14:31:19.166Z,2.10
2018-12-27T14:34:00.234Z,2.58
2018-12-27T14:36:40.903Z,2.15
2018-12-27T14:39:21.902Z,2.37
2018-12-27T14:42:03.083Z,1.98
2018-12-27T14:44:44.068Z,2.85
2018-12-27T14:47:24.826Z,3.02
2018-12-27T14:50:05.770Z,1.98
2018-12-27T14:52:46.552Z,2.65
2018-12-27T14:55:28.681Z,1.98
2018-12-27T14:58:09.847Z,3.10
2018-12-27T15:00:50.627Z,2.37
2018-12-27T15:03:31.257Z,4.25
2018-12-27T15:06:11.850Z,1.90
2018-12-27T15:08:52.556Z,3.35
2018-12-27T15:11:33.323Z,7.33
2018-12-27T15:14:14.133Z,2.60
2018-12-27T15:16:55.066Z,2.42
2018-12-27T15:19:35.795Z,2.25
2018-12-27T15:22:16.602Z,2.35
2018-12-27T15:24:57.112Z,3.00
2018-12-27T15:27:37.805Z,2.95
2018-12-27T15:30:18.382Z,3.10
2018-12-27T15:32:59.063Z,4.12
2018-12-27T15:35:40.016Z,4.22
2018-12-27T15:38:20.673Z,9.58
2018-12-27T15:41:01.388Z,2.30
2018-12-27T15:43:42.130Z,2.80
2018-12-27T15:46:23.104Z,4.25
2018-12-27T15:49:03.727Z,4.53
2018-12-27T15:51:44.480Z,4.75
2018-12-27T15:54:25.301Z,3.02
2018-12-27T15:57:06.207Z,4.12
2018-12-27T15:59:46.888Z,3.50
2018-12-27T16:02:27.801Z,4.30
2018-12-27T16:05:08.226Z,4.78
2018-12-27T16:07:49.263Z,4.22
2018-12-27T16:10:29.940Z,5.92
2018-12-27T16:13:10.570Z,6.65
2018-12-27T16:15:51.358Z,13.50
2018-12-27T16:18:32.220Z,8.00
2018-12-27T16:21:12.948Z,8.55
2018-12-27T16:23:53.522Z,7.65
2018-12-27T16:26:34.112Z,8.68
2018-12-27T16:29:15.198Z,10.23
2018-12-27T16:31:56.072Z,11.08
2018-12-27T16:34:36.921Z,9.48
2018-12-27T16:37:18.071Z,12.10
2018-12-27T16:39:59.102Z,8.65
2018-12-27T16:42:40.175Z,13.08
2018-12-27T16:45:20.644Z,11.85
2018-12-27T16:48:01.310Z,10.45
2018-12-27T16:50:41.901Z,13.22
2018-12-27T16:53:22.369Z,8.30
2018-12-27T16:56:03.471Z,7.50
2018-12-27T16:58:44.227Z,10.45
2018-12-27T17:01:24.963Z,12.95
2018-12-27T17:04:05.868Z,12.58
2018-12-27T17:06:46.934Z,10.88
2018-12-27T17:09:27.716Z,18.05
2018-12-27T17:12:08.156Z,12.98
2018-12-27T17:14:48.733Z,10.08
2018-12-27T17:17:29.201Z,12.98
2018-12-27T17:20:10.155Z,13.38
2018-12-27T17:22:50.802Z,14.18
2018-12-27T17:25:31.587Z,19.17
2018-12-27T17:28:12.229Z,27.73
2018-12-27T17:30:52.708Z,17.23
2018-12-27T17:33:33.560Z,18.90
2018-12-27T17:36:14.567Z,16.60
2018-12-27T17:38:55.334Z,16.97
2018-12-27T17:41:36.058Z,17.62
2018-12-27T17:44:17.111Z,22.45
2018-12-27T17:46:57.984Z,13.08
2018-12-27T17:49:39.013Z,14.90
2018-12-27T17:52:20.109Z,16.50
2018-12-27T17:55:00.871Z,16.42
2018-12-27T17:57:41.780Z,16.55
2018-12-27T18:00:22.400Z,18.02
2018-12-27T18:03:03.281Z,18.85
2018-12-27T18:05:44.166Z,18.00
2018-12-27T18:08:25.092Z,15.68
2018-12-27T18:11:05.484Z,19.48
2018-12-27T18:13:46.304Z,12.98
2018-12-27T18:16:26.781Z,13.18
2018-12-27T18:19:07.501Z,14.65
2018-12-27T18:21:48.193Z,16.20
2018-12-27T18:24:28.607Z,12.75
2018-12-27T18:27:09.264Z,13.88
2018-12-27T18:29:50.092Z,16.02
2018-12-27T18:32:31.091Z,11.85
2018-12-27T18:35:12.006Z,14.87
2018-12-27T18:37:52.595Z,9.83
2018-12-27T18:40:33.612Z,11.65
2018-12-27T18:43:14.071Z,10.93
2018-12-27T18:45:54.734Z,13.83
2018-12-27T18:48:35.237Z,14.03
2018-12-27T18:51:15.851Z,16.70
2018-12-27T18:53:56.858Z,16.97
2018-12-27T18:56:38.028Z,18.32
2018-12-27T18:59:19.063Z,17.07
2018-12-27T19:01:59.692Z,18.35
2018-12-27T19:04:40.136Z,21.02
2018-12-27T19:07:22.027Z,18.75
2018-12-27T19:10:02.896Z,19.02
2018-12-27T19:12:44.107Z,20.55
2018-12-27T19:15:24.916Z,14.78
2018-12-27T19:18:05.849Z,12.80
2018-12-27T19:20:46.247Z,19.40
2018-12-27T19:23:26.779Z,16.70
2018-12-27T19:26:07.676Z,19.30
2018-12-27T19:28:48.511Z,13.25
2018-12-27T19:31:29.248Z,14.45
2018-12-27T19:34:09.687Z,12.98
2018-12-27T19:36:50.628Z,14.45
2018-12-27T19:39:31.348Z,15.45
2018-12-27T19:42:11.943Z,19.10
2018-12-27T19:44:52.456Z,16.25
2018-12-27T19:47:33.083Z,16.02
2018-12-27T19:50:13.911Z,16.95
2018-12-27T19:52:54.863Z,27.05
2018-12-27T19:55:35.417Z,31.33
2018-12-27T19:58:16.115Z,30.75
2018-12-27T20:00:56.985Z,27.82
2018-12-27T20:03:37.606Z,27.67
2018-12-27T20:06:18.583Z,29.48
2018-12-27T20:08:59.410Z,36.85
2018-12-27T20:11:40.476Z,25.97
2018-12-27T20:14:21.219Z,22.02
2018-12-27T20:17:01.746Z,19.62
2018-12-27T20:19:42.523Z,22.50
2018-12-27T20:22:23.410Z,17.23
2018-12-27T20:25:03.908Z,16.07
2018-12-27T20:27:45.003Z,48.20
2018-12-27T20:30:25.895Z,28.10
2018-12-27T20:33:06.793Z,35.35
2018-12-27T20:35:47.927Z,28.32
2018-12-27T20:38:28.568Z,20.45
2018-12-27T20:41:09.052Z,22.37
2018-12-27T20:43:49.683Z,51.05
2018-12-27T20:46:30.450Z,58.52
2018-12-27T20:49:11.521Z,67.40
2018-12-27T20:51:51.955Z,78.50
2018-12-27T20:54:32.794Z,105.50
2018-12-27T20:57:13.978Z,90.20
2018-12-27T20:59:55.132Z,108.03
2018-12-27T21:02:36.319Z,87.45
2018-12-27T21:05:17.379Z,74.50
2018-12-27T21:07:58.003Z,65.70
2018-12-27T21:10:38.771Z,51.83
2018-12-27T21:13:19.734Z,43.13
2018-12-27T21:16:00.343Z,49.93
2018-12-27T21:18:40.804Z,37.75
2018-12-27T21:21:21.444Z,33.20
2018-12-27T21:24:01.875Z,48.38
2018-12-27T21:26:42.463Z,39.42
2018-12-27T21:29:23.260Z,34.10
2018-12-27T21:32:04.172Z,37.63
2018-12-27T21:34:44.659Z,28.12
2018-12-27T21:37:25.375Z,32.83
2018-12-27T21:40:05.775Z,38.15
2018-12-27T21:42:46.611Z,31.23
2018-12-27T21:45:27.551Z,32.08
2018-12-27T21:48:08.483Z,36.38
2018-12-27T21:50:49.227Z,41.65
2018-12-27T21:53:30.040Z,41.42
2018-12-27T21:56:10.567Z,40.08
2018-12-27T21:58:51.432Z,33.33
2018-12-27T22:01:32.175Z,37.67
2018-12-27T22:04:12.811Z,38.15
2018-12-27T22:06:53.524Z,36.95
2018-12-27T22:09:34.180Z,38.83
2018-12-27T22:12:14.738Z,28.45
2018-12-27T22:14:55.483Z,27.45
2018-12-27T22:17:36.137Z,40.03
2018-12-27T22:20:16.963Z,35.03
2018-12-27T22:22:57.836Z,30.02
2018-12-27T22:25:38.760Z,34.70
2018-12-27T22:28:19.274Z,28.35
2018-12-27T22:30:59.943Z,28.92
2018-12-27T22:33:40.816Z,34.18
2018-12-27T22:36:21.741Z,31.75
2018-12-27T22:39:02.232Z,28.52
2018-12-27T22:41:42.755Z,25.15
2018-12-27T22:44:23.107Z,31.73
2018-12-27T22:47:03.596Z,34.75
2018-12-27T22:49:44.271Z,34.35
2018-12-27T22:52:25.108Z,34.83
2018-12-27T22:55:05.852Z,37.05
2018-12-27T22:57:46.501Z,36.63
2018-12-27T23:00:28.631Z,38.25
2018-12-27T23:03:09.872Z,34.67
2018-12-27T23:08:32.335Z,38.23
2018-12-27T23:11:12.879Z,29.72
2018-12-27T23:13:53.571Z,28.70
2018-12-27T23:16:34.159Z,34.70
2018-12-27T23:19:14.964Z,31.48
2018-12-27T23:21:55.783Z,25.43
2018-12-27T23:24:36.638Z,27.80
2018-12-27T23:27:17.565Z,25.05
2018-12-27T23:29:58.355Z,39.23
2018-12-27T23:32:39.023Z,26.10
2018-12-27T23:35:19.523Z,26.95
2018-12-27T23:38:00.272Z,31.75
2018-12-27T23:40:41.138Z,27.77
2018-12-27T23:43:21.885Z,26.70
2018-12-27T23:46:02.719Z,26.85
2018-12-27T23:48:43.543Z,26.87
2018-12-27T23:51:24.140Z,20.82
2018-12-27T23:54:04.839Z,22.05
2018-12-27T23:56:45.823Z,29.75
2018-12-27T23:59:26.324Z,25.23
